createdAt,value
2023-02-27T00:01:46.990Z,-1.80
2023-02-27T00:04:13.816Z,-1.80
2023-02-27T00:06:40.497Z,-1.90
2023-02-27T00:09:07.103Z,-2.00
2023-02-27T00:11:33.751Z,-1.90
2023-02-27T00:14:00.813Z,-1.90
2023-02-27T00:16:27.462Z,-2.00
2023-02-27T00:18:54.122Z,-2.00
2023-02-27T00:21:20.752Z,-2.10
2023-02-27T00:23:47.445Z,-2.10
2023-02-27T00:26:14.101Z,-2.00
2023-02-27T00:28:40.693Z,-2.00
2023-02-27T00:31:07.626Z,-2.10
2023-02-27T00:33:34.314Z,-2.10
2023-02-27T00:36:01.850Z,-2.00
2023-02-27T00:38:28.845Z,-2.10
2023-02-27T00:40:55.437Z,-2.10
2023-02-27T00:43:22.173Z,-2.00
2023-02-27T00:45:48.798Z,-1.90
2023-02-27T00:48:15.843Z,-1.90
2023-02-27T00:50:42.678Z,-1.80
2023-02-27T00:53:09.290Z,-1.90
2023-02-27T00:55:36.121Z,-1.90
2023-02-27T00:58:02.751Z,-1.80
2023-02-27T01:00:29.338Z,-1.70
2023-02-27T01:02:56.016Z,-1.70
2023-02-27T01:05:22.634Z,-1.80
2023-02-27T01:07:49.329Z,-1.90
2023-02-27T01:10:16.033Z,-2.00
2023-02-27T01:12:43.021Z,-2.10
2023-02-27T01:15:10.375Z,-2.20
2023-02-27T01:17:37.073Z,-2.20
2023-02-27T01:20:04.073Z,-2.10
2023-02-27T01:22:30.683Z,-2.20
2023-02-27T01:24:57.323Z,-2.20
2023-02-27T01:27:23.947Z,-2.20
2023-02-27T01:29:50.586Z,-2.30
2023-02-27T01:32:20.051Z,-2.40
2023-02-27T01:34:46.788Z,-2.40
2023-02-27T01:37:13.434Z,-2.40
2023-02-27T01:39:40.089Z,-2.40
2023-02-27T01:42:17.202Z,-2.30
2023-02-27T01:45:04.099Z,-2.30
2023-02-27T01:47:30.772Z,-2.40
2023-02-27T01:49:57.534Z,-2.40
2023-02-27T01:52:24.241Z,-2.40
2023-02-27T01:54:50.913Z,-2.40
2023-02-27T01:57:17.642Z,-2.30
2023-02-27T01:59:44.276Z,-2.40
2023-02-27T02:02:14.552Z,-2.40
2023-02-27T02:04:41.260Z,-2.30
2023-02-27T02:07:09.714Z,-2.20
2023-02-27T02:09:43.504Z,-2.20
2023-02-27T02:12:12.495Z,-2.30
2023-02-27T02:14:39.318Z,-2.30
2023-02-27T02:17:08.919Z,-2.20
2023-02-27T02:19:48.006Z,-2.30
2023-02-27T02:22:20.629Z,-2.40
2023-02-27T02:25:06.387Z,-2.40
2023-02-27T02:27:32.943Z,-2.30
2023-02-27T02:30:25.113Z,-2.20
2023-02-27T02:33:08.183Z,-2.30
2023-02-27T02:35:46.757Z,-2.20
2023-02-27T02:38:29.463Z,-2.30
2023-02-27T02:41:14.586Z,-2.30
2023-02-27T02:43:52.416Z,-2.20
2023-02-27T02:46:31.913Z,-2.10
2023-02-27T02:48:58.389Z,-2.10
2023-02-27T02:51:34.603Z,-2.20
2023-02-27T02:54:05.050Z,-2.30
2023-02-27T02:56:31.723Z,-2.30
2023-02-27T02:59:02.760Z,-2.30
2023-02-27T03:01:33.471Z,-2.20
2023-02-27T03:04:08.149Z,-2.40
2023-02-27T03:06:37.920Z,-2.50
2023-02-27T03:09:18.270Z,-2.40
2023-02-27T03:11:47.199Z,-2.40
2023-02-27T03:14:37.174Z,-2.50
2023-02-27T03:17:18.079Z,-2.50
2023-02-27T03:19:56.715Z,-2.50
2023-02-27T03:22:31.017Z,-2.50
2023-02-27T03:24:59.029Z,-2.40
2023-02-27T03:27:28.029Z,-2.40
2023-02-27T03:30:03.872Z,-2.40
2023-02-27T03:32:33.378Z,-2.40
2023-02-27T03:35:00.118Z,-2.20
2023-02-27T03:37:33.038Z,-2.20
2023-02-27T03:40:18.602Z,-2.30
2023-02-27T03:42:55.165Z,-2.20
2023-02-27T03:45:21.744Z,-2.20
2023-02-27T03:47:48.545Z,-2.20
2023-02-27T03:50:15.401Z,-2.30
2023-02-27T03:52:42.244Z,-2.30
2023-02-27T03:55:11.512Z,-2.30
2023-02-27T03:57:38.343Z,-2.30
2023-02-27T04:00:06.320Z,-2.30
2023-02-27T04:02:33.476Z,-2.30
2023-02-27T04:05:00.242Z,-2.40
2023-02-27T04:07:31.988Z,-2.50
2023-02-27T04:10:17.224Z,-2.60
2023-02-27T04:12:45.815Z,-2.50
2023-02-27T04:15:31.210Z,-2.60
2023-02-27T04:18:16.747Z,-2.50
2023-02-27T04:20:44.791Z,-2.50
2023-02-27T04:23:23.602Z,-2.50
2023-02-27T04:25:50.129Z,-2.40
2023-02-27T04:28:18.735Z,-2.30
2023-02-27T04:31:01.148Z,-2.30
2023-02-27T04:33:27.766Z,-2.30
2023-02-27T04:35:56.793Z,-2.30
2023-02-27T04:38:28.214Z,-2.20
2023-02-27T04:40:57.923Z,-2.30
2023-02-27T04:43:26.216Z,-2.30
2023-02-27T04:45:53.900Z,-2.40
2023-02-27T04:48:23.103Z,-2.40
2023-02-27T04:51:13.038Z,-2.50
2023-02-27T04:53:53.487Z,-2.60
2023-02-27T04:56:41.929Z,-2.60
2023-02-27T04:59:10.754Z,-2.60
2023-02-27T05:01:47.036Z,-2.60
2023-02-27T05:04:15.888Z,-2.60
2023-02-27T05:06:43.916Z,-2.60
2023-02-27T05:09:10.440Z,-2.50
2023-02-27T05:11:46.171Z,-2.40
2023-02-27T05:14:29.203Z,-2.40
2023-02-27T05:17:03.289Z,-2.40
2023-02-27T05:19:30.956Z,-2.50
2023-02-27T05:22:05.709Z,-2.60
2023-02-27T05:24:49.340Z,-2.50
2023-02-27T05:27:31.399Z,-2.40
2023-02-27T05:30:01.129Z,-2.50
2023-02-27T05:32:39.625Z,-2.50
2023-02-27T05:35:06.281Z,-2.60
2023-02-27T05:37:51.425Z,-2.70
2023-02-27T05:40:23.341Z,-2.60
2023-02-27T05:42:57.053Z,-2.50
2023-02-27T05:45:25.865Z,-2.50
2023-02-27T05:47:55.465Z,-2.50
2023-02-27T05:50:24.907Z,-2.60
2023-02-27T05:52:52.698Z,-2.50
2023-02-27T05:55:24.065Z,-2.40
2023-02-27T05:57:53.743Z,-2.50
2023-02-27T06:00:34.170Z,-2.60
2023-02-27T06:03:00.940Z,-2.60
2023-02-27T06:05:27.883Z,-2.50
2023-02-27T06:07:54.400Z,-2.40
2023-02-27T06:10:21.646Z,-2.50
2023-02-27T06:12:48.386Z,-2.40
2023-02-27T06:15:15.046Z,-2.40
2023-02-27T06:17:41.662Z,-2.40
2023-02-27T06:20:08.796Z,-2.40
2023-02-27T06:22:35.406Z,-2.30
2023-02-27T06:25:02.294Z,-2.30
2023-02-27T06:27:28.873Z,-2.30
2023-02-27T06:29:55.469Z,-2.30
2023-02-27T06:32:23.842Z,-2.40
2023-02-27T06:34:50.497Z,-2.40
2023-02-27T06:37:17.084Z,-2.40
2023-02-27T06:39:43.714Z,-2.50
2023-02-27T06:42:10.298Z,-2.40
2023-02-27T06:44:36.924Z,-2.40
2023-02-27T06:47:03.558Z,-2.50
2023-02-27T06:49:30.212Z,-2.50
2023-02-27T06:51:56.802Z,-2.40
2023-02-27T06:54:23.402Z,-2.40
2023-02-27T06:56:51.774Z,-2.40
2023-02-27T06:59:18.439Z,-2.50
2023-02-27T07:01:45.057Z,-2.50
2023-02-27T07:04:13.411Z,-2.40
2023-02-27T07:07:34.789Z,-2.40
2023-02-27T07:09:26.757Z,-2.40
2023-02-27T07:11:53.395Z,-2.40
2023-02-27T07:14:20.082Z,-2.40
2023-02-27T07:16:50.847Z,-2.40
2023-02-27T07:19:18.536Z,-2.30
2023-02-27T07:21:45.200Z,-2.20
2023-02-27T07:24:12.003Z,-2.20
2023-02-27T07:26:38.610Z,-2.10
2023-02-27T07:29:05.409Z,-2.10
2023-02-27T07:31:32.299Z,-2.10
2023-02-27T07:33:59.002Z,-2.00
2023-02-27T07:36:25.839Z,-2.00
2023-02-27T07:38:52.672Z,-1.90
2023-02-27T07:41:29.896Z,-1.90
2023-02-27T07:43:57.108Z,-1.90
2023-02-27T07:46:24.668Z,-1.80
2023-02-27T07:48:51.307Z,-1.80
2023-02-27T07:51:18.007Z,-1.70
2023-02-27T07:53:44.556Z,-1.60
2023-02-27T07:56:11.178Z,-1.50
2023-02-27T07:58:37.835Z,-1.40
2023-02-27T08:01:04.455Z,-1.40
2023-02-27T08:03:31.101Z,-1.30
2023-02-27T08:05:57.641Z,-1.20
2023-02-27T08:08:24.623Z,-1.20
2023-02-27T08:10:51.174Z,-1.10
2023-02-27T08:13:20.734Z,-0.90
2023-02-27T08:15:57.259Z,-0.80
2023-02-27T08:18:23.935Z,-0.80
2023-02-27T08:20:50.514Z,-0.70
2023-02-27T08:23:17.271Z,-0.70
2023-02-27T08:25:43.964Z,-0.60
2023-02-27T08:28:10.632Z,-0.40
2023-02-27T08:30:37.239Z,-0.30
2023-02-27T08:33:04.190Z,-0.30
2023-02-27T08:35:31.456Z,-0.20
2023-02-27T08:37:58.455Z,-0.20
2023-02-27T08:40:25.306Z,-0.20
2023-02-27T08:42:52.285Z,0.00
2023-02-27T08:45:19.120Z,-0.10
2023-02-27T08:47:45.954Z,0.00
2023-02-27T08:50:12.679Z,0.00
2023-02-27T08:52:39.461Z,0.30
2023-02-27T08:55:06.430Z,0.50
2023-02-27T08:57:33.557Z,0.40
2023-02-27T09:00:00.416Z,0.40
2023-02-27T09:02:27.217Z,0.80
2023-02-27T09:04:53.842Z,1.30
2023-02-27T09:07:20.596Z,1.60
2023-02-27T09:09:49.713Z,3.40
2023-02-27T09:12:16.667Z,4.90
2023-02-27T09:14:43.307Z,6.30
2023-02-27T09:17:10.092Z,7.90
2023-02-27T09:19:36.805Z,8.90
2023-02-27T09:22:03.496Z,8.30
2023-02-27T09:24:30.204Z,9.10
2023-02-27T09:26:56.898Z,10.30
2023-02-27T09:29:24.011Z,10.30
2023-02-27T09:31:50.793Z,9.30
2023-02-27T09:34:17.579Z,10.30
2023-02-27T09:36:44.410Z,10.40
2023-02-27T09:39:11.337Z,10.30
2023-02-27T09:41:43.865Z,10.90
2023-02-27T09:44:16.267Z,9.90
2023-02-27T09:46:42.929Z,9.60
2023-02-27T09:49:12.541Z,9.60
2023-02-27T09:51:39.225Z,9.60
2023-02-27T09:54:05.958Z,8.30
2023-02-27T09:56:35.581Z,8.80
2023-02-27T09:59:21.144Z,8.70
2023-02-27T10:01:50.908Z,8.80
2023-02-27T10:04:27.956Z,8.70
2023-02-27T10:07:00.549Z,8.50
2023-02-27T10:09:39.390Z,9.10
2023-02-27T10:12:12.082Z,10.20
2023-02-27T10:14:41.859Z,10.50
2023-02-27T10:17:27.210Z,11.30
2023-02-27T10:19:54.564Z,10.90
2023-02-27T10:22:36.038Z,9.30
2023-02-27T10:25:06.256Z,9.80
2023-02-27T10:27:35.735Z,11.00
2023-02-27T10:30:17.309Z,11.70
2023-02-27T10:32:48.248Z,12.10
2023-02-27T10:35:35.181Z,13.90
2023-02-27T10:38:04.206Z,14.80
2023-02-27T10:40:31.128Z,14.90
2023-02-27T10:42:59.935Z,14.50
2023-02-27T10:45:26.805Z,12.00
2023-02-27T10:47:53.498Z,12.20
2023-02-27T10:50:28.363Z,12.00
2023-02-27T10:52:59.124Z,11.00
2023-02-27T10:55:27.989Z,11.70
2023-02-27T10:57:56.529Z,11.80
2023-02-27T11:00:30.981Z,12.30
2023-02-27T11:02:57.817Z,12.60
2023-02-27T11:05:28.002Z,13.20
2023-02-27T11:07:55.839Z,12.70
2023-02-27T11:10:24.680Z,11.50
2023-02-27T11:13:02.011Z,12.00
2023-02-27T11:15:36.244Z,12.00
2023-02-27T11:18:19.960Z,12.00
2023-02-27T11:20:50.562Z,11.50
2023-02-27T11:23:18.916Z,11.20
2023-02-27T11:25:45.932Z,9.10
2023-02-27T11:28:14.261Z,10.20
2023-02-27T11:30:42.649Z,10.50
2023-02-27T11:33:17.838Z,10.90
2023-02-27T11:35:49.500Z,10.80
2023-02-27T11:38:24.898Z,11.10
2023-02-27T11:40:55.620Z,11.00
2023-02-27T11:43:25.091Z,10.60
2023-02-27T11:46:05.154Z,10.60
2023-02-27T11:48:41.784Z,9.60
2023-02-27T11:51:08.312Z,9.50
2023-02-27T11:53:37.893Z,9.90
2023-02-27T11:56:07.359Z,10.70
2023-02-27T11:58:40.366Z,11.60
2023-02-27T12:01:08.874Z,11.20
2023-02-27T12:03:52.346Z,11.80
2023-02-27T12:06:21.001Z,11.80
2023-02-27T12:08:54.641Z,12.30
2023-02-27T12:11:28.082Z,12.70
2023-02-27T12:13:59.447Z,10.60
2023-02-27T12:16:36.510Z,11.10
2023-02-27T12:19:09.228Z,10.80
2023-02-27T12:21:44.372Z,11.10
2023-02-27T12:24:21.283Z,11.70
2023-02-27T12:26:49.640Z,11.60
2023-02-27T12:29:23.684Z,11.90
2023-02-27T12:31:53.133Z,12.00
2023-02-27T12:34:38.785Z,11.60
2023-02-27T12:37:17.108Z,11.70
2023-02-27T12:39:44.981Z,12.30
2023-02-27T12:44:54.234Z,12.40
2023-02-27T12:47:20.727Z,12.60
2023-02-27T12:49:53.544Z,13.10
2023-02-27T12:52:20.398Z,13.20
2023-02-27T12:54:53.999Z,14.30
2023-02-27T12:57:27.371Z,12.00
2023-02-27T13:00:09.342Z,11.70
2023-02-27T13:02:54.872Z,10.60
2023-02-27T13:05:40.441Z,10.00
2023-02-27T13:08:06.913Z,10.80
2023-02-27T13:10:33.455Z,11.20
2023-02-27T13:13:20.505Z,10.70
2023-02-27T13:15:51.663Z,11.00
2023-02-27T13:18:33.495Z,9.40
2023-02-27T13:21:03.303Z,9.00
2023-02-27T13:23:34.269Z,8.40
2023-02-27T13:26:01.460Z,8.80
2023-02-27T13:28:29.175Z,9.80
2023-02-27T13:31:13.640Z,10.70
2023-02-27T13:33:45.918Z,10.90
2023-02-27T13:36:15.536Z,10.60
2023-02-27T13:38:46.393Z,11.00
2023-02-27T13:41:25.007Z,11.30
2023-02-27T13:43:54.727Z,9.60
2023-02-27T13:46:24.350Z,8.60
2023-02-27T13:49:26.926Z,8.40
2023-02-27T13:51:58.667Z,8.30
2023-02-27T13:54:27.593Z,8.00
2023-02-27T13:57:00.170Z,7.50
2023-02-27T13:59:31.249Z,7.80
2023-02-27T14:02:04.092Z,8.40
2023-02-27T14:04:32.982Z,8.80
2023-02-27T14:07:07.469Z,9.10
2023-02-27T14:09:35.970Z,9.80
2023-02-27T14:12:03.567Z,10.30
2023-02-27T14:14:35.994Z,10.60
2023-02-27T14:17:03.725Z,10.80
2023-02-27T14:19:42.552Z,10.40
2023-02-27T14:22:10.763Z,10.40
2023-02-27T14:24:44.867Z,10.20
2023-02-27T14:27:18.877Z,11.00
2023-02-27T14:29:47.795Z,11.80
2023-02-27T14:32:21.394Z,12.00
2023-02-27T14:34:48.740Z,11.00
2023-02-27T14:37:23.198Z,10.00
2023-02-27T14:39:53.681Z,9.70
2023-02-27T14:42:32.449Z,9.30
2023-02-27T14:44:59.308Z,9.20
2023-02-27T14:47:33.287Z,8.40
2023-02-27T14:50:00.959Z,8.60
2023-02-27T14:52:32.039Z,8.60
2023-02-27T14:55:13.778Z,8.30
2023-02-27T14:57:40.418Z,8.70
2023-02-27T15:00:07.398Z,8.90
2023-02-27T15:02:35.649Z,9.50
2023-02-27T15:05:02.159Z,10.40
2023-02-27T15:07:33.018Z,10.50
2023-02-27T15:10:03.280Z,9.90
2023-02-27T15:12:31.150Z,9.20
2023-02-27T15:14:58.962Z,9.10
2023-02-27T15:17:27.227Z,9.00
2023-02-27T15:19:55.401Z,8.90
2023-02-27T15:22:38.674Z,9.00
2023-02-27T15:25:07.683Z,9.90
2023-02-27T15:27:36.996Z,10.50
2023-02-27T15:30:04.096Z,10.50
2023-02-27T15:32:35.573Z,10.80
2023-02-27T15:35:03.476Z,10.80
2023-02-27T15:37:31.547Z,10.30
2023-02-27T15:39:58.930Z,9.30
2023-02-27T15:42:30.399Z,8.70
2023-02-27T15:44:58.373Z,8.20
2023-02-27T15:47:26.716Z,8.30
2023-02-27T15:49:59.806Z,8.40
2023-02-27T15:52:27.367Z,8.50
2023-02-27T15:54:59.504Z,8.30
2023-02-27T15:57:26.304Z,8.20
2023-02-27T15:59:55.069Z,8.20
2023-02-27T16:02:24.333Z,7.80
2023-02-27T16:04:51.101Z,8.10
2023-02-27T16:07:22.168Z,8.70
2023-02-27T16:09:56.000Z,8.70
2023-02-27T16:12:27.567Z,8.80
2023-02-27T16:15:09.731Z,8.50
2023-02-27T16:17:36.358Z,7.90
2023-02-27T16:20:22.871Z,7.50
2023-02-27T16:23:14.762Z,7.10
2023-02-27T16:25:41.870Z,6.80
2023-02-27T16:28:14.677Z,6.60
2023-02-27T16:30:42.486Z,6.50
2023-02-27T16:33:15.056Z,6.30
2023-02-27T16:35:41.950Z,6.30
2023-02-27T16:38:08.708Z,6.30
2023-02-27T16:40:35.368Z,6.30
2023-02-27T16:43:01.936Z,6.20
2023-02-27T16:45:29.271Z,6.20
2023-02-27T16:47:57.097Z,6.10
2023-02-27T16:50:26.332Z,6.10
2023-02-27T16:52:52.967Z,6.00
2023-02-27T16:55:19.658Z,6.00
2023-02-27T16:57:46.196Z,6.00
2023-02-27T17:00:15.083Z,5.90
2023-02-27T17:02:42.850Z,5.90
2023-02-27T17:05:09.685Z,5.90
2023-02-27T17:07:36.331Z,5.80
2023-02-27T17:10:03.198Z,5.80
2023-02-27T17:12:29.704Z,5.70
2023-02-27T17:14:56.373Z,5.60
2023-02-27T17:17:22.887Z,5.50
2023-02-27T17:19:49.588Z,5.40
2023-02-27T17:22:16.190Z,5.40
2023-02-27T17:24:42.809Z,5.30
2023-02-27T17:27:09.419Z,5.30
2023-02-27T17:29:37.315Z,5.20
2023-02-27T17:32:03.944Z,5.10
2023-02-27T17:34:30.595Z,5.00
2023-02-27T17:36:57.196Z,4.90
2023-02-27T17:39:23.866Z,4.80
2023-02-27T17:41:52.834Z,4.80
2023-02-27T17:44:19.494Z,4.70
2023-02-27T17:46:48.205Z,4.60
2023-02-27T17:49:15.012Z,4.60
2023-02-27T17:51:41.603Z,4.60
2023-02-27T17:54:08.216Z,4.60
2023-02-27T17:56:36.739Z,4.60
2023-02-27T17:59:03.962Z,4.60
2023-02-27T18:01:30.552Z,4.60
2023-02-27T18:03:57.680Z,4.60
2023-02-27T18:06:24.671Z,4.60
2023-02-27T18:08:51.287Z,4.50
2023-02-27T18:11:19.050Z,4.50
2023-02-27T18:13:46.494Z,4.40
2023-02-27T18:16:13.266Z,4.40
2023-02-27T18:18:40.874Z,4.30
2023-02-27T18:21:12.239Z,4.20
2023-02-27T18:23:39.365Z,4.20
2023-02-27T18:26:07.035Z,4.10
2023-02-27T18:28:34.231Z,4.00
2023-02-27T18:31:00.811Z,4.00
2023-02-27T18:33:27.490Z,3.90
2023-02-27T18:35:54.384Z,3.80
2023-02-27T18:38:21.096Z,3.70
2023-02-27T18:40:47.841Z,3.70
2023-02-27T18:43:14.544Z,3.70
2023-02-27T18:45:41.276Z,3.60
2023-02-27T18:48:08.121Z,3.50
2023-02-27T18:50:34.749Z,3.40
2023-02-27T18:53:01.348Z,3.30
2023-02-27T18:55:27.954Z,3.30
2023-02-27T18:57:54.523Z,3.30
2023-02-27T19:00:24.226Z,3.30
2023-02-27T19:02:51.364Z,3.20
2023-02-27T19:05:18.100Z,3.20
2023-02-27T19:07:44.686Z,3.20
2023-02-27T19:10:11.554Z,3.20
2023-02-27T19:12:38.388Z,3.10
2023-02-27T19:15:05.512Z,3.10
2023-02-27T19:17:33.416Z,3.10
2023-02-27T19:20:00.006Z,3.00
2023-02-27T19:22:30.404Z,3.00
2023-02-27T19:24:57.488Z,3.00
2023-02-27T19:27:24.226Z,3.00
2023-02-27T19:29:51.013Z,3.00
2023-02-27T19:32:17.833Z,3.00
2023-02-27T19:34:44.496Z,3.00
2023-02-27T19:37:11.102Z,2.90
2023-02-27T19:39:37.836Z,2.90
2023-02-27T19:42:04.541Z,2.90
2023-02-27T19:44:31.190Z,2.80
2023-02-27T19:46:57.979Z,2.70
2023-02-27T19:49:24.628Z,2.60
2023-02-27T19:51:51.274Z,2.60
2023-02-27T19:54:17.883Z,2.50
2023-02-27T19:56:44.706Z,2.40
2023-02-27T19:59:12.340Z,2.40
2023-02-27T20:01:39.276Z,2.30
2023-02-27T20:04:06.608Z,2.30
2023-02-27T20:06:41.758Z,2.20
2023-02-27T20:09:09.268Z,2.20
2023-02-27T20:11:36.033Z,2.10
2023-02-27T20:14:02.666Z,2.00
2023-02-27T20:16:30.558Z,2.00
2023-02-27T20:18:57.627Z,1.90
2023-02-27T20:21:24.798Z,1.80
2023-02-27T20:23:51.804Z,1.80
2023-02-27T20:26:23.296Z,1.80
2023-02-27T20:28:50.821Z,1.70
2023-02-27T20:31:18.985Z,1.70
2023-02-27T20:33:46.291Z,1.80
2023-02-27T20:36:13.390Z,1.90
2023-02-27T20:38:40.420Z,1.90
2023-02-27T20:41:11.227Z,2.00
2023-02-27T20:43:38.497Z,2.10
2023-02-27T20:46:06.156Z,2.10
2023-02-27T20:48:32.842Z,2.10
2023-02-27T20:51:06.738Z,2.10
2023-02-27T20:53:34.382Z,2.10
2023-02-27T20:56:01.034Z,2.00
2023-02-27T20:58:27.711Z,2.00
2023-02-27T21:00:54.420Z,1.90
2023-02-27T21:03:21.110Z,1.90
2023-02-27T21:05:48.852Z,1.90
2023-02-27T21:08:15.620Z,1.90
2023-02-27T21:10:42.264Z,1.80
2023-02-27T21:13:08.974Z,1.80
2023-02-27T21:15:38.452Z,1.70
2023-02-27T21:18:07.739Z,1.60
2023-02-27T21:20:34.391Z,1.50
2023-02-27T21:23:01.121Z,1.40
2023-02-27T21:25:28.614Z,1.40
2023-02-27T21:27:55.999Z,1.40
2023-02-27T21:30:22.744Z,1.30
2023-02-27T21:32:49.356Z,1.30
2023-02-27T21:35:16.276Z,1.20
2023-02-27T21:37:46.599Z,1.10
2023-02-27T21:40:13.314Z,1.10
2023-02-27T21:42:39.959Z,1.00
2023-02-27T21:45:06.726Z,1.00
2023-02-27T21:47:33.233Z,0.90
2023-02-27T21:49:59.847Z,0.90
2023-02-27T21:52:26.494Z,0.80
2023-02-27T21:54:54.127Z,0.80
2023-02-27T21:57:21.511Z,0.70
2023-02-27T21:59:48.142Z,0.70
2023-02-27T22:02:14.753Z,0.80
2023-02-27T22:04:41.463Z,0.80
2023-02-27T22:07:10.503Z,0.90
2023-02-27T22:09:37.961Z,0.90
2023-02-27T22:12:04.734Z,1.00
2023-02-27T22:14:31.349Z,1.00
2023-02-27T22:16:58.142Z,1.10
2023-02-27T22:19:24.763Z,1.10
2023-02-27T22:21:51.399Z,1.20
2023-02-27T22:24:21.043Z,1.20
2023-02-27T22:26:49.493Z,1.20
2023-02-27T22:29:17.109Z,1.10
2023-02-27T22:31:43.813Z,1.10
2023-02-27T22:34:17.986Z,1.10
2023-02-27T22:36:45.903Z,1.00
2023-02-27T22:39:12.900Z,1.00
2023-02-27T22:41:40.531Z,0.90
2023-02-27T22:44:13.821Z,0.90
2023-02-27T22:46:41.912Z,0.80
2023-02-27T22:49:11.431Z,0.80
2023-02-27T22:51:38.396Z,0.70
2023-02-27T22:54:06.141Z,0.80
2023-02-27T22:56:33.351Z,0.70
2023-02-27T22:59:00.000Z,0.70
2023-02-27T23:01:30.604Z,0.70
2023-02-27T23:03:58.514Z,0.70
2023-02-27T23:06:29.229Z,0.60
2023-02-27T23:08:55.925Z,0.60
2023-02-27T23:11:22.967Z,0.60
2023-02-27T23:13:50.050Z,0.60
2023-02-27T23:16:17.470Z,0.50
2023-02-27T23:18:46.088Z,0.60
2023-02-27T23:21:13.738Z,0.50
2023-02-27T23:23:40.380Z,0.50
2023-02-27T23:26:06.970Z,0.50
2023-02-27T23:28:34.682Z,0.50
2023-02-27T23:31:01.860Z,0.40
2023-02-27T23:33:29.203Z,0.40
2023-02-27T23:35:57.404Z,0.30
2023-02-27T23:38:24.810Z,0.30
2023-02-27T23:40:51.659Z,0.30
2023-02-27T23:43:38.462Z,0.20
2023-02-27T23:46:06.708Z,0.30
2023-02-27T23:48:33.524Z,0.20
2023-02-27T23:51:01.101Z,0.20
2023-02-27T23:53:27.588Z,0.10
2023-02-27T23:55:54.117Z,0.10
2023-02-27T23:58:20.658Z,0.10
